This is the latest recevied weather packets stored in our database for station/object OE5RPP. If no packets are shown the sender has not sent any weather packets the latest 1 day(s).
| Time | Temp. | Humidity | Pressure | Rain* | Wind** | Luminosity | Snow |
|---|---|---|---|---|---|---|---|
| 1778088691 | 15° C | 30% | 1007.9 hPa | 0 mm | - | - | - |
| 1778084496 | 26.11° C | 17% | 1004.9 hPa | 0 mm | - | - | - |
| 1778080295 | 22.22° C | 18% | 1005.9 hPa | 0 mm | - | - | - |
| 1778079093 | 21.67° C | 18% | 1005.9 hPa | 0 mm | - | - | - |
| 1778076092 | 22.22° C | 18% | 1006.9 hPa | 0 mm | - | - | - |
| 1778074891 | 21.67° C | 20% | 1006.9 hPa | 0 mm | - | - | - |
| 1778071294 | 22.78° C | 18% | 1007.9 hPa | 0 mm | - | - | - |
| 1778070096 | 22.22° C | 18% | 1007.9 hPa | 0 mm | - | - | - |
| 1778065290 | 22.78° C | 18% | 1008.9 hPa | 0 mm | - | - | - |
| 1778062267 | 21.67° C | 22% | 1009.9 hPa | 0 mm | - | - | - |
| 1778061666 | 20° C | 23% | 1009.9 hPa | 0 mm | - | - | - |
| 1778061066 | 19.44° C | 23% | 1009.9 hPa | 0 mm | - | - | - |
| 1778059867 | 18.33° C | 30% | 1009.9 hPa | 0 mm | - | - | - |
| 1778059267 | 18.33° C | 30% | 1009.9 hPa | 0 mm | - | - | - |
| 1778056867 | 17.78° C | 31% | 1009.9 hPa | 0 mm | - | - | - |
| 1778055666 | 16.11° C | 36% | 1009.9 hPa | 0 mm | - | - | - |
| 1778055066 | 15.56° C | 36% | 1009.9 hPa | 0 mm | - | - | - |
| 1778054467 | 16.11° C | 36% | 1009.9 hPa | 0 mm | - | - | - |
| 1778053867 | 16.11° C | 37% | 1009.9 hPa | 0 mm | - | - | - |
| 1778053266 | 15.56° C | 37% | 1009.9 hPa | 0 mm | - | - | - |
| 1778051467 | 14.44° C | 54% | 1010.9 hPa | 0 mm | - | - | - |
| 1778050866 | 13.89° C | 56% | 1010.9 hPa | 0 mm | - | - | - |
| 1778050266 | 13.33° C | 57% | 1010.9 hPa | 0 mm | - | - | - |
| 1778049665 | 13.33° C | 57% | 1010.9 hPa | 0 mm | - | - | - |
| 1778047866 | 12.78° C | 58% | 1010.9 hPa | 0 mm | - | - | - |
* Rain latest hour (hover to see other rain measurements)
** Current wind speed in m/s (hover to see current wind gust speed)